createdAt,value
2023-01-19T00:00:43.973Z,939
2023-01-19T00:01:46.089Z,939
2023-01-19T00:02:48.192Z,939
2023-01-19T00:03:50.295Z,938.9
2023-01-19T00:04:52.108Z,938.8
2023-01-19T00:05:54.182Z,938.8
2023-01-19T00:06:56.243Z,938.6
2023-01-19T00:07:59.340Z,938.8
2023-01-19T00:09:01.804Z,938.7
2023-01-19T00:10:03.836Z,939
2023-01-19T00:11:05.828Z,938.8
2023-01-19T00:12:07.744Z,938.8
2023-01-19T00:13:09.604Z,938.9
2023-01-19T00:14:11.553Z,939
2023-01-19T00:15:13.506Z,938.7
2023-01-19T00:16:15.603Z,939
2023-01-19T00:17:17.610Z,938.8
2023-01-19T00:18:19.479Z,938.8
2023-01-19T00:19:21.409Z,939
2023-01-19T00:20:23.276Z,938.9
2023-01-19T00:21:25.225Z,939.1
2023-01-19T00:22:27.095Z,938.9
2023-01-19T00:23:28.920Z,939
2023-01-19T00:24:30.762Z,938.9
2023-01-19T00:25:32.830Z,939
2023-01-19T00:26:34.903Z,938.9
2023-01-19T00:27:36.927Z,939
2023-01-19T00:28:38.784Z,939
2023-01-19T00:29:40.629Z,939
2023-01-19T00:30:42.505Z,939.2
2023-01-19T00:31:44.614Z,939
2023-01-19T00:32:46.602Z,939.1
2023-01-19T00:33:48.444Z,939
2023-01-19T00:34:50.300Z,939
2023-01-19T00:35:55.153Z,938.9
2023-01-19T00:36:56.863Z,938.9
2023-01-19T00:37:58.701Z,938.8
2023-01-19T00:39:00.452Z,939
2023-01-19T00:40:02.435Z,938.9
2023-01-19T00:41:04.366Z,938.9
2023-01-19T00:42:06.240Z,938.9
2023-01-19T00:43:08.084Z,938.9
2023-01-19T00:44:09.917Z,938.9
2023-01-19T00:45:11.780Z,938.9
2023-01-19T00:46:13.956Z,939
2023-01-19T00:47:15.761Z,938.9
2023-01-19T00:48:17.512Z,938.9
2023-01-19T00:49:19.365Z,939
2023-01-19T00:50:21.315Z,938.8
2023-01-19T00:51:23.069Z,938.8
2023-01-19T00:52:24.816Z,938.7
2023-01-19T00:53:26.773Z,938.7
2023-01-19T00:54:28.632Z,938.8
2023-01-19T00:55:30.471Z,938.8
2023-01-19T00:56:32.315Z,938.8
2023-01-19T00:57:34.408Z,938.6
2023-01-19T00:58:36.218Z,938.6
2023-01-19T00:59:38.066Z,938.5
2023-01-19T01:00:40.039Z,938.4
2023-01-19T01:01:50.901Z,938.5
2023-01-19T01:02:53.332Z,938.6
2023-01-19T01:03:55.432Z,938.4
2023-01-19T01:04:57.360Z,938.4
2023-01-19T01:05:59.208Z,938.4
2023-01-19T01:07:01.049Z,938.3
2023-01-19T01:08:02.909Z,938.4
2023-01-19T01:09:04.961Z,938.3
2023-01-19T01:10:06.815Z,938.2
2023-01-19T01:11:08.559Z,938.3
2023-01-19T01:12:10.400Z,938.4
2023-01-19T01:13:27.221Z,938.2
2023-01-19T01:14:30.590Z,938.3
2023-01-19T01:15:32.552Z,938.2
2023-01-19T01:16:34.756Z,938.4
2023-01-19T01:17:36.661Z,938.2
2023-01-19T01:18:38.512Z,938
2023-01-19T01:19:40.461Z,938.2
2023-01-19T01:20:42.306Z,938.2
2023-01-19T01:21:44.068Z,938.2
2023-01-19T01:22:45.906Z,938.2
2023-01-19T01:23:47.760Z,938.1
2023-01-19T01:24:49.548Z,938.2
2023-01-19T01:25:51.496Z,938.3
2023-01-19T01:26:53.420Z,938.1
2023-01-19T01:27:55.363Z,938.2
2023-01-19T01:28:57.339Z,938.1
2023-01-19T01:29:59.129Z,938.1
2023-01-19T01:31:00.916Z,938.1
2023-01-19T01:32:02.753Z,938.1
2023-01-19T01:33:04.616Z,938.1
2023-01-19T01:34:06.559Z,938
2023-01-19T01:35:08.516Z,938.1
2023-01-19T01:36:10.403Z,938
2023-01-19T01:37:12.217Z,938.1
2023-01-19T01:38:14.071Z,938.2
2023-01-19T01:39:15.915Z,938.1
2023-01-19T01:40:17.876Z,938.2
2023-01-19T01:41:25.655Z,938.2
2023-01-19T01:42:28.430Z,938.2
2023-01-19T01:43:30.374Z,938.1
2023-01-19T01:44:32.250Z,938.3
2023-01-19T01:45:34.663Z,938.4
2023-01-19T01:46:36.651Z,938.4
2023-01-19T01:47:38.410Z,938.5
2023-01-19T01:48:40.356Z,938.5
2023-01-19T01:49:42.189Z,938.3
2023-01-19T01:50:44.040Z,938.4
2023-01-19T01:51:45.893Z,938.5
2023-01-19T01:53:08.675Z,938.5
2023-01-19T01:54:10.597Z,938.6
2023-01-19T01:55:12.443Z,938.5
2023-01-19T01:56:14.388Z,938.5
2023-01-19T01:57:16.132Z,938.4
2023-01-19T01:58:17.981Z,938.4
2023-01-19T01:59:19.738Z,938.6
2023-01-19T02:00:21.714Z,938.4
2023-01-19T02:01:23.902Z,938.4
2023-01-19T02:02:26.994Z,938.4
2023-01-19T02:03:29.115Z,938.4
2023-01-19T02:04:31.030Z,938.4
2023-01-19T02:05:32.724Z,938.4
2023-01-19T02:06:34.512Z,938.4
2023-01-19T02:07:36.383Z,938.4
2023-01-19T02:08:38.333Z,938.4
2023-01-19T02:09:40.177Z,938.5
2023-01-19T02:10:41.945Z,938.5
2023-01-19T02:11:43.856Z,938.5
2023-01-19T02:12:45.623Z,938.5
2023-01-19T02:13:47.479Z,938.5
2023-01-19T02:14:49.292Z,938.4
2023-01-19T02:15:51.309Z,938.4
2023-01-19T02:16:53.483Z,938.5
2023-01-19T02:17:55.292Z,938.5
2023-01-19T02:18:57.142Z,938.4
2023-01-19T02:19:58.982Z,938.4
2023-01-19T02:21:00.804Z,938.4
2023-01-19T02:22:02.582Z,938.5
2023-01-19T02:23:04.435Z,938.4
2023-01-19T02:24:06.295Z,938.2
2023-01-19T02:25:08.238Z,938.4
2023-01-19T02:26:10.086Z,938.2
2023-01-19T02:27:12.010Z,938.3
2023-01-19T02:28:13.998Z,938.2
2023-01-19T02:29:15.662Z,938.1
2023-01-19T02:30:17.493Z,938.1
2023-01-19T02:31:19.371Z,938.1
2023-01-19T02:32:21.387Z,938
2023-01-19T02:33:23.135Z,938.2
2023-01-19T02:34:25.088Z,938.2
2023-01-19T02:35:26.948Z,938.1
2023-01-19T02:36:29.026Z,938.2
2023-01-19T02:37:30.854Z,938.3
2023-01-19T02:38:32.776Z,938.4
2023-01-19T02:39:34.654Z,938.1
2023-01-19T02:40:36.495Z,938.2
2023-01-19T02:41:38.322Z,938.2
2023-01-19T02:42:40.196Z,938
2023-01-19T02:43:42.044Z,938.1
2023-01-19T02:44:43.907Z,938.1
2023-01-19T02:45:45.921Z,938.2
2023-01-19T02:46:47.924Z,938.2
2023-01-19T02:47:49.757Z,938.2
2023-01-19T02:48:51.729Z,938.3
2023-01-19T02:49:53.568Z,938.2
2023-01-19T02:50:55.406Z,938.2
2023-01-19T02:51:57.243Z,938.2
2023-01-19T02:53:00.171Z,938.2
2023-01-19T02:54:02.808Z,938.2
2023-01-19T02:55:07.704Z,938.3
2023-01-19T02:56:09.568Z,938.2
2023-01-19T02:57:11.459Z,938.4
2023-01-19T02:58:13.347Z,938.3
2023-01-19T02:59:15.323Z,938.3
2023-01-19T03:00:17.146Z,938.2
2023-01-19T03:01:19.511Z,938.1
2023-01-19T03:02:22.241Z,938.2
2023-01-19T03:03:24.370Z,938.2
2023-01-19T03:04:26.211Z,938.2
2023-01-19T03:05:27.972Z,938.3
2023-01-19T03:06:29.815Z,938
2023-01-19T03:07:31.662Z,938.2
2023-01-19T03:08:33.545Z,938.3
2023-01-19T03:09:35.472Z,938.1
2023-01-19T03:10:37.339Z,938.2
2023-01-19T03:11:39.233Z,938.2
2023-01-19T03:12:41.094Z,938.2
2023-01-19T03:13:42.952Z,938.1
2023-01-19T03:14:44.938Z,938.2
2023-01-19T03:15:46.872Z,938.1
2023-01-19T03:16:49.394Z,938.1
2023-01-19T03:17:51.313Z,938.2
2023-01-19T03:18:53.117Z,938
2023-01-19T03:19:55.089Z,938
2023-01-19T03:20:57.041Z,938.1
2023-01-19T03:21:59.068Z,938
2023-01-19T03:23:02.627Z,938
2023-01-19T03:24:05.262Z,938
2023-01-19T03:25:07.207Z,938.1
2023-01-19T03:26:09.057Z,938.1
2023-01-19T03:27:10.907Z,938.1
2023-01-19T03:28:12.763Z,938.1
2023-01-19T03:29:14.615Z,938.1
2023-01-19T03:30:16.569Z,938.1
2023-01-19T03:31:18.522Z,938.2
2023-01-19T03:32:20.565Z,938.1
2023-01-19T03:33:22.456Z,938.1
2023-01-19T03:34:24.383Z,938.1
2023-01-19T03:35:26.114Z,938
2023-01-19T03:36:28.097Z,938.1
2023-01-19T03:37:29.918Z,938.1
2023-01-19T03:38:31.674Z,938.2
2023-01-19T03:39:33.619Z,938
2023-01-19T03:40:35.439Z,938
2023-01-19T03:41:37.336Z,938.1
2023-01-19T03:42:39.181Z,937.8
2023-01-19T03:43:41.055Z,938
2023-01-19T03:44:43.080Z,938
2023-01-19T03:45:44.969Z,938
2023-01-19T03:46:46.778Z,938
2023-01-19T03:47:48.728Z,937.8
2023-01-19T03:48:50.716Z,938
2023-01-19T03:49:52.577Z,938
2023-01-19T03:50:54.383Z,938
2023-01-19T03:51:56.243Z,938.1
2023-01-19T03:52:59.643Z,938.1
2023-01-19T03:54:02.003Z,938.1
2023-01-19T03:55:03.930Z,938.1
2023-01-19T03:56:05.603Z,938.1
2023-01-19T03:57:07.531Z,937.9
2023-01-19T03:58:09.384Z,938.1
2023-01-19T03:59:11.201Z,938.1
2023-01-19T04:00:13.192Z,938
2023-01-19T04:01:15.513Z,937.9
2023-01-19T04:02:17.879Z,938
2023-01-19T04:03:19.758Z,938.1
2023-01-19T04:04:21.744Z,938.1
2023-01-19T04:05:23.557Z,938.1
2023-01-19T04:06:25.308Z,938.1
2023-01-19T04:07:27.162Z,938.2
2023-01-19T04:08:29.002Z,938.3
2023-01-19T04:09:30.827Z,938.2
2023-01-19T04:10:32.715Z,938.2
2023-01-19T04:11:34.464Z,938.2
2023-01-19T04:12:36.313Z,938.3
2023-01-19T04:13:38.049Z,938.3
2023-01-19T04:14:39.899Z,938.3
2023-01-19T04:15:41.880Z,938.3
2023-01-19T04:16:43.807Z,938.3
2023-01-19T04:17:45.666Z,938.3
2023-01-19T04:18:47.516Z,938.3
2023-01-19T04:19:49.699Z,938.3
2023-01-19T04:20:51.716Z,938.2
2023-01-19T04:21:53.578Z,938.4
2023-01-19T04:22:55.423Z,938.4
2023-01-19T04:24:00.199Z,938.5
2023-01-19T04:25:01.983Z,938.4
2023-01-19T04:26:03.850Z,938.4
2023-01-19T04:27:05.685Z,938.3
2023-01-19T04:28:07.527Z,938.3
2023-01-19T04:29:09.388Z,938.3
2023-01-19T04:30:13.859Z,938.3
2023-01-19T04:31:15.993Z,938.4
2023-01-19T04:32:17.805Z,938.4
2023-01-19T04:33:19.655Z,938.3
2023-01-19T04:34:21.398Z,938.3
2023-01-19T04:35:23.479Z,938.4
2023-01-19T04:36:25.410Z,938.5
2023-01-19T04:37:27.228Z,938.4
2023-01-19T04:38:29.108Z,938.5
2023-01-19T04:39:30.951Z,938.7
2023-01-19T04:40:32.678Z,938.7
2023-01-19T04:41:34.652Z,938.7
2023-01-19T04:42:36.509Z,938.5
2023-01-19T04:43:38.390Z,938.6
2023-01-19T04:44:40.212Z,938.5
2023-01-19T04:45:44.954Z,938.6
2023-01-19T04:46:46.990Z,938.6
2023-01-19T04:47:48.713Z,938.7
2023-01-19T04:48:50.466Z,938.7
2023-01-19T04:49:52.339Z,938.7
2023-01-19T04:50:54.199Z,938.7
2023-01-19T04:51:56.141Z,938.7
2023-01-19T04:52:58.545Z,938.7
2023-01-19T04:54:01.105Z,938.7
2023-01-19T04:55:03.527Z,938.7
2023-01-19T04:56:05.468Z,938.7
2023-01-19T04:57:07.420Z,938.7
2023-01-19T04:58:09.323Z,938.8
2023-01-19T04:59:11.011Z,938.7
2023-01-19T05:00:12.804Z,938.8
2023-01-19T05:01:14.922Z,938.8
2023-01-19T05:02:17.305Z,938.9
2023-01-19T05:03:19.285Z,938.7
2023-01-19T05:04:21.288Z,938.9
2023-01-19T05:05:23.140Z,938.8
2023-01-19T05:06:25.180Z,938.9
2023-01-19T05:07:27.091Z,938.8
2023-01-19T05:08:31.569Z,938.9
2023-01-19T05:09:33.309Z,938.9
2023-01-19T05:10:35.271Z,938.9
2023-01-19T05:11:37.077Z,938.9
2023-01-19T05:12:38.864Z,939
2023-01-19T05:13:40.611Z,939.2
2023-01-19T05:14:42.454Z,939.2
2023-01-19T05:15:44.524Z,939.1
2023-01-19T05:16:46.457Z,938.9
2023-01-19T05:17:48.371Z,939.1
2023-01-19T05:18:50.167Z,939.1
2023-01-19T05:19:52.013Z,939.1
2023-01-19T05:20:53.865Z,938.9
2023-01-19T05:21:55.866Z,939
2023-01-19T05:22:58.830Z,939.1
2023-01-19T05:24:01.197Z,939.1
2023-01-19T05:25:03.006Z,939.2
2023-01-19T05:26:04.852Z,939.3
2023-01-19T05:27:06.665Z,939.2
2023-01-19T05:28:08.543Z,939.3
2023-01-19T05:29:10.285Z,939.4
2023-01-19T05:30:12.097Z,939.2
2023-01-19T05:31:14.394Z,939.3
2023-01-19T05:32:16.459Z,939.3
2023-01-19T05:33:18.309Z,939.4
2023-01-19T05:34:20.333Z,939.3
2023-01-19T05:35:36.758Z,939.3
2023-01-19T05:36:38.477Z,939.4
2023-01-19T05:37:40.383Z,939.3
2023-01-19T05:38:42.210Z,939.4
2023-01-19T05:39:44.161Z,939.4
2023-01-19T05:40:46.009Z,939.4
2023-01-19T05:41:47.868Z,939.4
2023-01-19T05:42:49.609Z,939.3
2023-01-19T05:43:51.470Z,939.4
2023-01-19T05:44:53.383Z,939.5
2023-01-19T05:45:55.191Z,939.4
2023-01-19T05:46:57.176Z,939.5
2023-01-19T05:47:59.195Z,939.5
2023-01-19T05:49:01.119Z,939.4
2023-01-19T05:50:02.961Z,939.5
2023-01-19T05:51:04.810Z,939.5
2023-01-19T05:52:06.875Z,939.4
2023-01-19T05:53:08.755Z,939.4
2023-01-19T05:54:10.570Z,939.4
2023-01-19T05:55:12.327Z,939.4
2023-01-19T05:56:14.161Z,939.4
2023-01-19T05:57:16.013Z,939.4
2023-01-19T05:58:17.869Z,939.4
2023-01-19T05:59:19.713Z,939.4
2023-01-19T06:00:21.459Z,939.5
2023-01-19T06:01:23.346Z,939.4
2023-01-19T06:02:25.500Z,939.5
2023-01-19T06:03:27.547Z,939.5
2023-01-19T06:04:29.530Z,939.5
2023-01-19T06:05:31.321Z,939.7
2023-01-19T06:06:33.387Z,939.8
2023-01-19T06:07:35.153Z,939.7
2023-01-19T06:08:37.217Z,939.7
2023-01-19T06:09:39.062Z,939.8
2023-01-19T06:10:40.892Z,939.7
2023-01-19T06:11:42.834Z,939.8
2023-01-19T06:12:44.788Z,939.7
2023-01-19T06:13:46.770Z,939.7
2023-01-19T06:14:48.589Z,939.7
2023-01-19T06:15:50.552Z,939.7
2023-01-19T06:16:52.296Z,939.7
2023-01-19T06:17:54.180Z,939.6
2023-01-19T06:18:56.035Z,939.6
2023-01-19T06:19:57.852Z,939.6
2023-01-19T06:20:59.696Z,939.6
2023-01-19T06:22:01.533Z,939.5
2023-01-19T06:23:04.424Z,939.5
2023-01-19T06:24:06.390Z,939.6
2023-01-19T06:25:08.339Z,939.6
2023-01-19T06:26:10.162Z,939.6
2023-01-19T06:27:11.921Z,939.7
2023-01-19T06:28:13.922Z,939.7
2023-01-19T06:29:15.611Z,939.6
2023-01-19T06:30:17.468Z,939.5
2023-01-19T06:31:19.475Z,939.5
2023-01-19T06:32:21.548Z,939.4
2023-01-19T06:33:23.285Z,939.4
2023-01-19T06:34:27.971Z,939.6
2023-01-19T06:35:29.791Z,939.5
2023-01-19T06:36:31.649Z,939.6
2023-01-19T06:37:33.401Z,939.6
2023-01-19T06:38:35.245Z,939.6
2023-01-19T06:39:37.210Z,939.6
2023-01-19T06:40:39.094Z,939.6
2023-01-19T06:41:40.992Z,939.6
2023-01-19T06:42:42.871Z,939.6
2023-01-19T06:43:45.008Z,939.6
2023-01-19T06:44:46.721Z,939.7
2023-01-19T06:45:49.046Z,939.7
2023-01-19T06:46:50.866Z,939.7
2023-01-19T06:47:52.707Z,939.8
2023-01-19T06:48:54.791Z,939.7
2023-01-19T06:49:56.614Z,939.8
2023-01-19T06:51:00.311Z,939.9
2023-01-19T06:52:02.197Z,939.8
2023-01-19T06:53:03.918Z,939.9
2023-01-19T06:54:05.854Z,940
2023-01-19T06:55:07.757Z,939.9
2023-01-19T06:56:09.860Z,939.9
2023-01-19T06:57:12.237Z,939.9
2023-01-19T06:58:13.992Z,940
2023-01-19T06:59:15.763Z,940
2023-01-19T07:00:17.706Z,940
2023-01-19T07:01:20.113Z,940
2023-01-19T07:02:29.460Z,940.1
2023-01-19T07:03:32.141Z,940
2023-01-19T07:04:33.918Z,940.1
2023-01-19T07:05:35.617Z,940
2023-01-19T07:06:37.772Z,940
2023-01-19T07:07:40.105Z,939.9
2023-01-19T07:08:41.927Z,940
2023-01-19T07:09:43.705Z,940
2023-01-19T07:11:33.464Z,940.1
2023-01-19T07:12:35.718Z,940.1
2023-01-19T07:13:37.828Z,939.9
2023-01-19T07:14:39.682Z,939.9
2023-01-19T07:15:41.635Z,940
2023-01-19T07:16:43.846Z,940.1
2023-01-19T07:17:45.953Z,940
2023-01-19T07:18:47.794Z,940
2023-01-19T07:19:49.441Z,940
2023-01-19T07:20:51.286Z,940
2023-01-19T07:21:53.044Z,939.9
2023-01-19T07:22:54.823Z,939.9
2023-01-19T07:23:56.564Z,939.9
2023-01-19T07:24:58.489Z,940
2023-01-19T07:26:00.341Z,940
2023-01-19T07:27:02.215Z,940
2023-01-19T07:28:04.039Z,940
2023-01-19T07:29:05.932Z,939.9
2023-01-19T07:30:07.711Z,939.9
2023-01-19T07:31:09.931Z,939.9
2023-01-19T07:32:12.116Z,939.9
2023-01-19T07:33:14.114Z,939.9
2023-01-19T07:34:15.952Z,939.8
2023-01-19T07:35:17.767Z,939.9
2023-01-19T07:36:19.659Z,939.8
2023-01-19T07:37:21.607Z,939.8
2023-01-19T07:38:23.461Z,939.8
2023-01-19T07:39:25.390Z,939.8
2023-01-19T07:40:27.238Z,939.7
2023-01-19T07:41:29.126Z,939.7
2023-01-19T07:42:31.045Z,939.7
2023-01-19T07:43:33.020Z,939.8
2023-01-19T07:44:34.798Z,939.8
2023-01-19T07:45:37.067Z,939.8
2023-01-19T07:46:38.885Z,939.8
2023-01-19T07:47:40.739Z,939.8
2023-01-19T07:48:42.691Z,939.8
2023-01-19T07:49:44.517Z,939.9
2023-01-19T07:50:46.376Z,939.8
2023-01-19T07:51:48.320Z,939.9
2023-01-19T07:52:50.292Z,939.8
2023-01-19T07:53:52.223Z,939.9
2023-01-19T07:54:54.061Z,939.7
2023-01-19T07:55:55.843Z,939.7
2023-01-19T07:56:57.629Z,939.6
2023-01-19T07:57:59.583Z,939.6
2023-01-19T07:59:01.745Z,939.7
2023-01-19T08:00:03.690Z,939.8
2023-01-19T08:01:05.938Z,939.8
2023-01-19T08:02:08.631Z,939.7
2023-01-19T08:03:10.512Z,939.7
2023-01-19T08:04:12.828Z,939.6
2023-01-19T08:05:14.840Z,939.8
2023-01-19T08:06:16.776Z,939.8
2023-01-19T08:07:18.625Z,939.7
2023-01-19T08:08:20.409Z,939.7
2023-01-19T08:09:22.187Z,939.7
2023-01-19T08:10:24.052Z,939.6
2023-01-19T08:11:25.829Z,939.6
2023-01-19T08:12:27.761Z,939.6
2023-01-19T08:13:29.632Z,939.5
2023-01-19T08:14:31.494Z,939.8
2023-01-19T08:15:33.483Z,939.7
2023-01-19T08:16:35.483Z,939.7
2023-01-19T08:17:37.357Z,939.8
2023-01-19T08:18:39.131Z,939.8
2023-01-19T08:19:42.062Z,939.8
2023-01-19T08:20:43.923Z,939.7
2023-01-19T08:21:45.767Z,939.7
2023-01-19T08:22:47.613Z,940
2023-01-19T08:23:49.492Z,939.7
2023-01-19T08:24:51.325Z,939.8
2023-01-19T08:25:53.360Z,939.7
2023-01-19T08:26:55.162Z,939.7
2023-01-19T08:27:57.072Z,939.8
2023-01-19T08:28:58.974Z,939.9
2023-01-19T08:30:00.893Z,939.8
2023-01-19T08:31:24.889Z,940
2023-01-19T08:32:27.482Z,939.6
2023-01-19T08:33:29.320Z,939.6
2023-01-19T08:34:31.302Z,939.7
2023-01-19T08:35:33.092Z,939.8
2023-01-19T08:36:34.815Z,939.7
2023-01-19T08:37:36.649Z,939.7
2023-01-19T08:38:38.500Z,939.8
2023-01-19T08:39:40.263Z,939.7
2023-01-19T08:40:42.308Z,939.8
2023-01-19T08:41:44.169Z,939.8
2023-01-19T08:42:46.212Z,939.9
2023-01-19T08:43:48.087Z,939.7
2023-01-19T08:44:58.973Z,939.8
2023-01-19T08:46:00.959Z,939.8
2023-01-19T08:47:03.434Z,939.9
2023-01-19T08:48:05.370Z,939.8
2023-01-19T08:49:07.349Z,940
2023-01-19T08:50:09.243Z,939.7
2023-01-19T08:51:11.186Z,939.8
2023-01-19T08:52:13.105Z,939.8
2023-01-19T08:53:14.856Z,939.9
2023-01-19T08:54:19.058Z,939.6
2023-01-19T08:55:20.821Z,939.5
2023-01-19T08:56:22.663Z,939.7
2023-01-19T08:57:24.502Z,939.6
2023-01-19T08:58:26.455Z,939.7
2023-01-19T08:59:28.307Z,939.9
2023-01-19T09:00:30.193Z,939.7
2023-01-19T09:01:32.783Z,939.7
2023-01-19T09:02:35.295Z,939.7
2023-01-19T09:03:37.436Z,939.6
2023-01-19T09:04:39.294Z,939.6
2023-01-19T09:05:41.114Z,939.6
2023-01-19T09:06:42.999Z,939.6
2023-01-19T09:07:44.761Z,939.5
2023-01-19T09:08:46.696Z,939.4
2023-01-19T09:09:48.650Z,939.4
2023-01-19T09:10:50.736Z,939.3
2023-01-19T09:11:52.598Z,939.5
2023-01-19T09:12:54.388Z,939.4
2023-01-19T09:13:56.261Z,939.2
2023-01-19T09:14:58.206Z,939.3
2023-01-19T09:16:00.423Z,939.3
2023-01-19T09:17:02.422Z,939.1
2023-01-19T09:18:07.329Z,939.3
2023-01-19T09:19:09.438Z,939.1
2023-01-19T09:20:11.350Z,939
2023-01-19T09:21:13.450Z,939.2
2023-01-19T09:22:15.327Z,939.1
2023-01-19T09:23:17.173Z,939.1
2023-01-19T09:24:19.169Z,939.1
2023-01-19T09:25:21.119Z,939.1
2023-01-19T09:26:23.054Z,939.1
2023-01-19T09:27:24.910Z,939.1
2023-01-19T09:28:26.662Z,939.2
2023-01-19T09:29:28.368Z,939.1
2023-01-19T09:30:30.919Z,939.1
2023-01-19T09:31:33.085Z,939.1
2023-01-19T09:32:35.078Z,939
2023-01-19T09:33:36.934Z,939
2023-01-19T09:34:38.785Z,939.2
2023-01-19T09:35:40.539Z,939
2023-01-19T09:36:42.143Z,939.2
2023-01-19T09:37:43.926Z,939.1
2023-01-19T09:38:45.667Z,939
2023-01-19T09:39:47.717Z,938.9
2023-01-19T09:40:49.795Z,938.9
2023-01-19T09:41:51.445Z,939
2023-01-19T09:42:53.286Z,939.1
2023-01-19T09:43:55.096Z,939
2023-01-19T09:44:56.978Z,939
2023-01-19T09:45:58.946Z,939
2023-01-19T09:47:00.800Z,938.9
2023-01-19T09:48:03.616Z,939
2023-01-19T09:49:05.701Z,939
2023-01-19T09:50:07.597Z,938.8
2023-01-19T09:51:09.562Z,938.9
2023-01-19T09:52:11.353Z,939
2023-01-19T09:53:13.103Z,939
2023-01-19T09:54:14.949Z,939
2023-01-19T09:55:16.862Z,939.1
2023-01-19T09:56:18.752Z,939
2023-01-19T09:57:20.578Z,939
2023-01-19T09:58:22.413Z,939
2023-01-19T09:59:24.301Z,939
2023-01-19T10:00:26.172Z,939.1
2023-01-19T10:01:28.563Z,938.9
2023-01-19T10:02:30.554Z,939
2023-01-19T10:03:32.429Z,939
2023-01-19T10:04:34.187Z,938.8
2023-01-19T10:05:36.027Z,939
2023-01-19T10:06:38.202Z,938.7
2023-01-19T10:07:39.971Z,938.9
2023-01-19T10:08:41.752Z,938.8
2023-01-19T10:09:43.682Z,938.8
2023-01-19T10:10:45.478Z,938.7
2023-01-19T10:11:53.910Z,938.7
2023-01-19T10:12:55.738Z,938.7
2023-01-19T10:13:57.670Z,938.8
2023-01-19T10:14:59.619Z,938.7
2023-01-19T10:16:01.623Z,938.8
2023-01-19T10:17:03.830Z,939
2023-01-19T10:18:05.745Z,938.9
2023-01-19T10:19:07.551Z,938.9
2023-01-19T10:20:09.606Z,938.9
2023-01-19T10:21:11.949Z,938.7
2023-01-19T10:22:14.041Z,938.9
2023-01-19T10:23:15.902Z,938.8
2023-01-19T10:24:17.689Z,938.8
2023-01-19T10:25:19.884Z,938.9
2023-01-19T10:26:22.081Z,938.8
2023-01-19T10:27:23.993Z,938.8
2023-01-19T10:28:25.861Z,938.7
2023-01-19T10:29:27.730Z,938.7
2023-01-19T10:30:29.873Z,938.6
2023-01-19T10:31:32.791Z,938.6
2023-01-19T10:32:35.084Z,938.6
2023-01-19T10:33:36.967Z,938.7
2023-01-19T10:34:38.893Z,938.9
2023-01-19T10:35:41.258Z,938.7
2023-01-19T10:36:43.117Z,938.8
2023-01-19T10:37:45.056Z,938.7
2023-01-19T10:38:47.513Z,938.8
2023-01-19T10:39:49.587Z,938.8
2023-01-19T10:40:52.200Z,938.7
2023-01-19T10:41:54.227Z,938.8
2023-01-19T10:42:56.428Z,938.8
2023-01-19T10:43:58.982Z,938.7
2023-01-19T10:45:01.032Z,938.8
2023-01-19T10:46:03.073Z,938.7
2023-01-19T10:47:05.219Z,938.7
2023-01-19T10:48:08.038Z,938.6
2023-01-19T10:49:09.933Z,938.7
2023-01-19T10:50:11.933Z,938.8
2023-01-19T10:51:13.997Z,938.7
2023-01-19T10:52:19.262Z,938.5
2023-01-19T10:53:21.145Z,938.7
2023-01-19T10:54:22.947Z,938.7
2023-01-19T10:55:25.074Z,938.7
2023-01-19T10:56:27.047Z,938.7
2023-01-19T10:57:29.008Z,938.8
2023-01-19T10:58:31.049Z,938.7
2023-01-19T10:59:32.918Z,938.8
2023-01-19T11:00:34.807Z,938.8
2023-01-19T11:01:37.739Z,939
2023-01-19T11:02:40.376Z,938.8
2023-01-19T11:03:42.323Z,938.8
2023-01-19T11:04:44.401Z,938.7
2023-01-19T11:05:46.364Z,938.7
2023-01-19T11:06:48.215Z,938.8
2023-01-19T11:07:50.171Z,938.6
2023-01-19T11:08:52.025Z,938.7
2023-01-19T11:09:53.904Z,938.8
2023-01-19T11:10:55.680Z,938.7
2023-01-19T11:11:57.469Z,938.6
2023-01-19T11:13:00.686Z,938.6
2023-01-19T11:14:03.611Z,938.6
2023-01-19T11:15:05.302Z,938.5
2023-01-19T11:16:07.481Z,938.6
2023-01-19T11:17:09.444Z,938.5
2023-01-19T11:18:11.285Z,938.6
2023-01-19T11:19:13.208Z,938.5
2023-01-19T11:20:15.080Z,938.4
2023-01-19T11:21:16.878Z,938.6
2023-01-19T11:22:18.964Z,938.5
2023-01-19T11:23:20.775Z,938.3
2023-01-19T11:24:22.535Z,938.4
2023-01-19T11:25:24.492Z,938.5
2023-01-19T11:26:26.351Z,938.4
2023-01-19T11:27:28.286Z,938.4
2023-01-19T11:28:30.029Z,938.3
2023-01-19T11:29:31.788Z,938.4
2023-01-19T11:30:33.722Z,938.4
2023-01-19T11:31:35.826Z,938.5
2023-01-19T11:32:37.736Z,938.3
2023-01-19T11:33:39.598Z,938.3
2023-01-19T11:34:41.547Z,938.2
2023-01-19T11:35:43.384Z,938.3
2023-01-19T11:36:45.237Z,938.3
2023-01-19T11:37:47.208Z,938.2
2023-01-19T11:38:49.040Z,938.2
2023-01-19T11:39:50.822Z,938.2
2023-01-19T11:40:52.699Z,938.2
2023-01-19T11:41:54.597Z,938.2
2023-01-19T11:42:56.479Z,938.2
2023-01-19T11:43:58.264Z,938.3
2023-01-19T11:44:59.953Z,938.3
2023-01-19T11:46:01.880Z,938.4
2023-01-19T11:47:03.854Z,938.3
2023-01-19T11:48:05.628Z,938.3
2023-01-19T11:49:07.568Z,938.3
2023-01-19T11:50:09.608Z,938.3
2023-01-19T11:51:11.479Z,938.3
2023-01-19T11:52:13.546Z,938.3
2023-01-19T11:53:15.300Z,938.4
2023-01-19T11:54:17.221Z,938.3
2023-01-19T11:55:19.663Z,938.3
2023-01-19T11:56:21.627Z,938.3
2023-01-19T11:57:23.483Z,938.3
2023-01-19T11:58:25.281Z,938.2
2023-01-19T11:59:27.187Z,938.3
2023-01-19T12:00:28.889Z,938.3
2023-01-19T12:01:30.970Z,938.4
2023-01-19T12:02:33.066Z,938.3
2023-01-19T12:03:35.375Z,938.3
2023-01-19T12:04:37.346Z,938.3
2023-01-19T12:05:39.133Z,938.2
2023-01-19T12:06:40.961Z,938.2
2023-01-19T12:07:42.806Z,938.3
2023-01-19T12:08:44.659Z,938.2
2023-01-19T12:09:46.516Z,938.2
2023-01-19T12:10:48.354Z,938.2
2023-01-19T12:11:50.058Z,938.2
2023-01-19T12:12:52.297Z,938.3
2023-01-19T12:13:54.317Z,938.1
2023-01-19T12:14:56.182Z,938.1
2023-01-19T12:15:58.221Z,938.1
2023-01-19T12:17:00.093Z,938.1
2023-01-19T12:18:03.406Z,938.1
2023-01-19T12:19:06.027Z,938.1
2023-01-19T12:20:07.971Z,938.2
2023-01-19T12:21:10.045Z,938.1
2023-01-19T12:22:12.026Z,938.1
2023-01-19T12:23:13.914Z,938
2023-01-19T12:24:16.011Z,938
2023-01-19T12:25:17.890Z,938
2023-01-19T12:26:19.548Z,938
2023-01-19T12:27:21.360Z,938.1
2023-01-19T12:28:23.112Z,938
2023-01-19T12:29:24.893Z,938
2023-01-19T12:30:26.672Z,938.2
2023-01-19T12:31:29.028Z,938.2
2023-01-19T12:32:31.193Z,938.3
2023-01-19T12:33:33.296Z,938.3
2023-01-19T12:34:35.403Z,938.4
2023-01-19T12:35:37.251Z,938.2
2023-01-19T12:36:39.206Z,938.3
2023-01-19T12:37:41.184Z,938.3
2023-01-19T12:38:42.964Z,938.3
2023-01-19T12:39:44.794Z,938.4
2023-01-19T12:40:46.543Z,938.3
2023-01-19T12:41:48.671Z,938.2
2023-01-19T12:42:50.527Z,938.4
2023-01-19T12:43:52.350Z,938.5
2023-01-19T12:44:54.117Z,938.4
2023-01-19T12:45:56.037Z,938.5
2023-01-19T12:46:58.123Z,938.4
2023-01-19T12:47:59.971Z,938.4
2023-01-19T12:49:01.915Z,938.4
2023-01-19T12:50:03.760Z,938.4
2023-01-19T12:51:05.613Z,938.3
2023-01-19T12:52:07.379Z,938.3
2023-01-19T12:53:09.252Z,938.4
2023-01-19T12:54:10.994Z,938.4
2023-01-19T12:55:12.826Z,938.4
2023-01-19T12:56:14.722Z,938.4
2023-01-19T12:57:16.536Z,938.4
2023-01-19T12:58:18.400Z,938.5
2023-01-19T12:59:20.245Z,938.5
2023-01-19T13:00:22.267Z,938.4
2023-01-19T13:01:24.238Z,938.4
2023-01-19T13:02:26.245Z,938.5
2023-01-19T13:03:28.214Z,938.4
2023-01-19T13:04:30.070Z,938.5
2023-01-19T13:05:33.861Z,938.4
2023-01-19T13:06:35.614Z,938.5
2023-01-19T13:07:37.565Z,938.5
2023-01-19T13:08:39.518Z,938.6
2023-01-19T13:09:41.491Z,938.7
2023-01-19T13:10:43.397Z,938.7
2023-01-19T13:12:01.181Z,938.7
2023-01-19T13:13:03.105Z,938.7
2023-01-19T13:14:04.913Z,938.8
2023-01-19T13:15:06.779Z,938.8
2023-01-19T13:16:08.837Z,938.8
2023-01-19T13:17:10.811Z,938.8
2023-01-19T13:18:12.655Z,938.8
2023-01-19T13:19:14.450Z,938.8
2023-01-19T13:20:16.359Z,938.8
2023-01-19T13:21:18.097Z,938.9
2023-01-19T13:22:19.846Z,938.9
2023-01-19T13:23:22.019Z,938.8
2023-01-19T13:24:26.536Z,938.9
2023-01-19T13:25:28.495Z,938.7
2023-01-19T13:26:30.609Z,938.8
2023-01-19T13:27:32.491Z,938.8